Time;durP1;ratioP1;P1;durP2;ratioP2;P2;SDS_P1;SDS_P2;PMS_P1;PMS_P2;Temp;Humidity;BMP_temperature;BMP_pressure;BME280_temperature;BME280_humidity;BME280_pressure;Samples;Min_cycle;Max_cycle;Signal;HPM_P1;HPM_P2
2021/06/07 00:01:25;;;;;;;5.00;3.20;;;18.40;67.40;;;;;;5075144;28;20036;-74
2021/06/07 00:03:51;;;;;;;5.78;3.42;;;18.40;67.50;;;;;;5091887;28;20032;-74
2021/06/07 00:06:19;;;;;;;4.50;3.45;;;18.40;67.60;;;;;;5075701;28;20374;-74
2021/06/07 00:08:45;;;;;;;5.88;2.92;;;18.40;67.70;;;;;;5075949;28;20077;-74
2021/06/07 00:11:12;;;;;;;6.50;3.40;;;18.30;67.70;;;;;;5076045;28;20401;-74
2021/06/07 00:13:41;;;;;;;5.15;3.42;;;18.40;67.80;;;;;;5075854;28;20029;-74
2021/06/07 00:16:07;;;;;;;5.72;3.58;;;18.40;67.90;;;;;;5075880;28;20029;-74
2021/06/07 00:18:33;;;;;;;4.38;3.15;;;18.40;67.90;;;;;;5075935;28;20032;-74
2021/06/07 00:21:20;;;;;;;6.15;3.40;;;18.40;67.90;;;;;;5075684;28;20081;-74
2021/06/07 00:23:48;;;;;;;4.57;3.25;;;18.40;67.90;;;;;;5075486;28;20500;-74
2021/06/07 00:26:14;;;;;;;4.10;3.20;;;18.40;67.90;;;;;;5075459;28;20036;-74
2021/06/07 00:28:40;;;;;;;5.65;3.28;;;18.40;67.90;;;;;;5075658;28;20029;-74
2021/06/07 00:31:07;;;;;;;4.15;3.20;;;18.40;67.90;;;;;;5074345;28;20039;-74
2021/06/07 00:33:33;;;;;;;4.53;2.75;;;18.40;67.90;;;;;;5075414;28;20020;-74
2021/06/07 00:36:00;;;;;;;3.63;2.83;;;18.40;67.90;;;;;;5075610;28;20035;-74
2021/06/07 00:38:26;;;;;;;4.45;3.28;;;18.40;68.00;;;;;;5074879;28;20078;-74
2021/06/07 00:40:53;;;;;;;7.45;3.10;;;18.40;68.10;;;;;;5075302;28;20036;-74
2021/06/07 00:43:18;;;;;;;3.28;2.97;;;18.40;68.20;;;;;;5075351;28;20040;-74
2021/06/07 00:45:44;;;;;;;4.80;2.92;;;18.50;68.50;;;;;;5075251;28;20025;-74
2021/06/07 00:48:10;;;;;;;4.25;3.30;;;18.40;68.60;;;;;;5090778;28;20028;-74
2021/06/07 00:50:43;;;;;;;5.68;3.10;;;18.40;68.70;;;;;;5075101;28;20466;-74
2021/06/07 00:53:13;;;;;;;5.85;3.00;;;18.40;69.00;;;;;;5074858;28;20063;-74
2021/06/07 00:55:46;;;;;;;4.15;3.08;;;18.40;69.00;;;;;;5075012;28;20067;-73
2021/06/07 00:58:13;;;;;;;6.25;3.53;;;18.40;69.10;;;;;;5074867;28;20064;-74
2021/06/07 01:00:39;;;;;;;4.95;3.08;;;18.30;69.10;;;;;;5074925;28;20025;-74
2021/06/07 01:03:07;;;;;;;4.75;3.35;;;18.30;69.30;;;;;;5075184;28;20040;-74
2021/06/07 01:05:33;;;;;;;5.70;3.55;;;18.30;69.50;;;;;;5074678;28;20028;-74
2021/06/07 01:08:00;;;;;;;4.68;3.15;;;18.30;69.70;;;;;;5074814;28;20078;-74
2021/06/07 01:10:26;;;;;;;4.80;3.30;;;18.30;69.90;;;;;;5074330;28;20025;-74
2021/06/07 01:12:53;;;;;;;4.18;3.42;;;18.30;70.10;;;;;;5073896;28;20040;-74
2021/06/07 01:15:19;;;;;;;7.57;3.67;;;18.30;70.20;;;;;;5074203;28;20025;-74
2021/06/07 01:17:46;;;;;;;4.38;3.45;;;18.20;70.20;;;;;;5074632;28;20024;-74
2021/06/07 01:20:17;;;;;;;5.20;3.28;;;18.20;70.30;;;;;;5074560;28;20075;-74
2021/06/07 01:22:43;;;;;;;4.97;3.42;;;18.20;70.30;;;;;;5074235;28;20034;-74
2021/06/07 01:25:16;;;;;;;4.07;3.33;;;18.20;70.40;;;;;;5074531;28;20025;-73
2021/06/07 01:27:41;;;;;;;4.43;3.22;;;18.20;70.60;;;;;;5074213;28;20111;-74
2021/06/07 01:30:13;;;;;;;5.07;3.15;;;18.20;70.70;;;;;;5074616;28;20063;-74
2021/06/07 01:32:40;;;;;;;3.80;3.08;;;18.20;70.90;;;;;;5074517;28;20028;-74
2021/06/07 01:35:09;;;;;;;5.35;3.17;;;18.20;70.90;;;;;;5073127;28;20429;-74
2021/06/07 01:37:36;;;;;;;3.47;3.05;;;18.10;71.00;;;;;;5094479;28;20050;-74
2021/06/07 01:40:05;;;;;;;3.42;3.10;;;18.20;71.20;;;;;;5094111;28;20036;-74
2021/06/07 01:42:31;;;;;;;4.22;3.00;;;18.20;71.50;;;;;;5094209;28;20059;-74
2021/06/07 01:44:57;;;;;;;4.05;3.33;;;18.20;71.60;;;;;;5094730;28;20032;-74
2021/06/07 01:47:23;;;;;;;3.92;3.10;;;18.10;71.60;;;;;;5093043;28;20471;-74
2021/06/07 01:49:48;;;;;;;4.97;3.40;;;18.20;71.80;;;;;;5093088;28;20043;-73
2021/06/07 01:52:14;;;;;;;3.63;3.13;;;18.20;72.00;;;;;;5094642;28;20355;-74
2021/06/07 01:54:40;;;;;;;5.20;3.63;;;18.10;72.10;;;;;;5094357;28;20071;-74
2021/06/07 01:57:06;;;;;;;4.15;3.60;;;18.10;72.20;;;;;;5094154;28;20024;-74
2021/06/07 01:59:32;;;;;;;3.60;3.22;;;18.10;72.40;;;;;;5094054;28;20028;-74
2021/06/07 02:01:58;;;;;;;4.03;3.28;;;18.10;72.50;;;;;;5093987;28;20107;-74
2021/06/07 02:04:23;;;;;;;3.38;2.90;;;18.10;72.70;;;;;;5093936;28;20494;-74
2021/06/07 02:06:49;;;;;;;6.65;3.60;;;18.20;72.90;;;;;;5093691;28;20073;-74
2021/06/07 02:09:15;;;;;;;4.05;2.80;;;18.10;73.00;;;;;;5093924;28;20056;-73
2021/06/07 02:11:41;;;;;;;4.35;3.20;;;18.20;73.20;;;;;;5093800;28;20036;-74
2021/06/07 02:14:08;;;;;;;5.47;3.20;;;18.20;73.40;;;;;;5093568;28;20024;-74
2021/06/07 02:16:38;;;;;;;4.15;3.13;;;18.10;73.40;;;;;;5093461;28;20020;-74
2021/06/07 02:19:07;;;;;;;4.93;3.28;;;18.20;73.60;;;;;;5092760;28;20017;-74
2021/06/07 02:21:34;;;;;;;4.00;3.00;;;18.20;73.60;;;;;;5073386;28;20119;-73
2021/06/07 02:24:02;;;;;;;4.72;3.22;;;18.20;73.70;;;;;;5062677;28;20033;-74
2021/06/07 02:26:28;;;;;;;5.22;3.28;;;18.20;73.70;;;;;;5063092;28;20016;-74
2021/06/07 02:28:58;;;;;;;5.25;3.10;;;18.20;73.80;;;;;;5061500;28;20079;-73
2021/06/07 02:31:24;;;;;;;3.65;3.25;;;18.20;73.90;;;;;;5061695;28;20045;-74
2021/06/07 02:33:54;;;;;;;5.13;3.40;;;18.30;74.60;;;;;;5061520;28;20025;-74
2021/06/07 02:36:21;;;;;;;5.45;3.40;;;18.30;74.00;;;;;;5061017;28;20052;-74
2021/06/07 02:38:47;;;;;;;6.00;3.25;;;18.30;74.00;;;;;;5063619;28;20021;-73
2021/06/07 02:41:13;;;;;;;5.00;3.15;;;18.30;73.90;;;;;;5061019;28;20044;-77
2021/06/07 02:43:39;;;;;;;3.80;2.90;;;18.40;74.00;;;;;;5062649;28;20036;-74
2021/06/07 02:46:05;;;;;;;6.97;3.20;;;18.40;73.90;;;;;;5061329;28;20021;-75
2021/06/07 02:48:32;;;;;;;6.38;3.33;;;18.40;73.90;;;;;;5061506;28;20019;-74
2021/06/07 02:50:58;;;;;;;7.35;3.30;;;18.40;73.80;;;;;;5062512;28;20035;-74
2021/06/07 02:53:23;;;;;;;4.18;3.38;;;18.50;73.80;;;;;;5061288;28;20375;-76
2021/06/07 02:55:52;;;;;;;4.43;3.55;;;18.50;73.60;;;;;;5060934;28;20435;-74
2021/06/07 02:58:19;;;;;;;4.15;3.15;;;18.50;74.10;;;;;;5060700;28;20374;-79
2021/06/07 03:01:00;;;;;;;5.22;3.38;;;18.60;73.40;;;;;;5061785;28;20085;-74
2021/06/07 03:03:26;;;;;;;5.50;3.58;;;18.60;73.20;;;;;;5061463;28;20032;-75
2021/06/07 03:05:54;;;;;;;4.43;3.28;;;18.70;73.20;;;;;;5060909;28;20077;-74
2021/06/07 03:08:23;;;;;;;6.20;3.70;;;18.70;73.00;;;;;;5060703;28;20021;-74
2021/06/07 03:10:52;;;;;;;5.05;3.45;;;18.80;73.00;;;;;;5061599;28;20433;-74
2021/06/07 03:13:19;;;;;;;5.93;3.60;;;18.80;72.90;;;;;;5062659;28;20029;-78
2021/06/07 03:15:45;;;;;;;6.80;3.45;;;18.90;72.70;;;;;;5059850;28;20390;-75
2021/06/07 03:18:11;;;;;;;4.28;3.70;;;18.80;72.50;;;;;;5063265;28;20446;-74
2021/06/07 03:20:37;;;;;;;8.75;3.80;;;18.90;72.50;;;;;;5060225;28;20029;-74
2021/06/07 03:23:16;;;;;;;4.32;3.38;;;18.90;72.30;;;;;;5061066;28;20378;-78
2021/06/07 03:25:46;;;;;;;4.38;3.70;;;18.90;72.10;;;;;;5061057;28;20027;-74
2021/06/07 03:28:12;;;;;;;5.28;3.70;;;18.90;72.00;;;;;;5059837;28;20016;-74
2021/06/07 03:30:38;;;;;;;5.40;3.90;;;18.80;72.00;;;;;;5062552;28;20020;-75
2021/06/07 03:33:06;;;;;;;4.43;3.58;;;18.80;72.00;;;;;;5059409;28;20025;-76
2021/06/07 03:35:33;;;;;;;6.47;4.00;;;18.80;72.10;;;;;;5060935;28;20108;-75
2021/06/07 03:37:59;;;;;;;8.18;4.13;;;18.90;72.20;;;;;;5065462;28;20538;-75
2021/06/07 03:40:28;;;;;;;5.65;3.72;;;18.90;72.00;;;;;;5064250;28;20458;-75
2021/06/07 03:42:55;;;;;;;4.35;3.65;;;19.00;72.00;;;;;;5064160;28;20035;-73
2021/06/07 03:45:21;;;;;;;6.70;3.92;;;19.10;71.80;;;;;;5066303;28;20024;-74
2021/06/07 03:47:48;;;;;;;6.32;4.50;;;19.20;71.60;;;;;;5064843;28;20066;-74
2021/06/07 03:50:17;;;;;;;5.40;3.75;;;19.30;71.30;;;;;;5062961;28;20032;-75
2021/06/07 03:52:43;;;;;;;5.72;4.05;;;19.30;71.00;;;;;;5063899;28;20491;-73
2021/06/07 03:55:12;;;;;;;7.22;3.95;;;19.40;70.90;;;;;;5069871;28;20017;-73
2021/06/07 03:57:38;;;;;;;4.90;3.95;;;19.50;70.60;;;;;;5074908;28;20025;-73
2021/06/07 04:00:06;;;;;;;6.80;3.78;;;19.60;70.30;;;;;;5076050;28;20374;-73
2021/06/07 04:02:32;;;;;;;8.75;4.10;;;19.60;70.10;;;;;;5075605;28;20110;-74
2021/06/07 04:04:57;;;;;;;7.25;4.07;;;19.60;70.00;;;;;;5076019;28;20123;-74
2021/06/07 04:07:23;;;;;;;6.25;4.05;;;19.60;69.90;;;;;;5075250;28;20458;-73
2021/06/07 04:09:49;;;;;;;6.43;4.15;;;19.70;69.90;;;;;;5075941;28;20035;-74
2021/06/07 04:12:14;;;;;;;8.43;3.80;;;19.70;69.80;;;;;;5075839;28;20090;-73
2021/06/07 04:14:40;;;;;;;7.00;4.03;;;19.80;69.90;;;;;;5075539;28;20122;-73
2021/06/07 04:17:06;;;;;;;5.43;3.90;;;20.00;69.70;;;;;;5075399;28;20123;-73
2021/06/07 04:19:32;;;;;;;4.57;3.83;;;20.00;69.30;;;;;;5075676;28;20036;-73
2021/06/07 04:21:57;;;;;;;8.65;4.65;;;20.10;69.10;;;;;;5075628;28;20454;-73
2021/06/07 04:24:23;;;;;;;8.73;4.35;;;20.20;68.80;;;;;;5075155;28;20032;-74
2021/06/07 04:26:49;;;;;;;9.32;4.72;;;20.30;68.60;;;;;;5075780;28;20029;-73
2021/06/07 04:29:15;;;;;;;6.38;4.10;;;20.30;68.30;;;;;;5078626;28;20534;-74
2021/06/07 04:31:40;;;;;;;7.75;4.35;;;20.40;68.00;;;;;;5095192;28;20032;-73
2021/06/07 04:34:21;;;;;;;7.57;4.13;;;20.50;68.00;;;;;;5089224;28;20332;-74
2021/06/07 04:36:47;;;;;;;7.30;4.10;;;20.60;67.70;;;;;;5065291;28;20017;-75
2021/06/07 04:39:12;;;;;;;5.00;4.13;;;20.60;67.50;;;;;;5064016;28;20029;-73
2021/06/07 04:41:38;;;;;;;6.80;4.10;;;20.70;67.40;;;;;;5064257;28;20031;-75
2021/06/07 04:44:04;;;;;;;10.65;4.85;;;20.80;67.10;;;;;;5064520;28;20469;-75
2021/06/07 04:46:32;;;;;;;7.88;4.07;;;20.90;67.00;;;;;;5063478;28;20029;-73
2021/06/07 04:48:57;;;;;;;6.00;4.40;;;21.00;66.70;;;;;;5064259;28;20119;-74
2021/06/07 04:51:23;;;;;;;4.68;4.03;;;21.00;66.60;;;;;;5062567;28;20490;-74
2021/06/07 04:53:49;;;;;;;6.55;4.45;;;21.00;66.40;;;;;;5063370;28;20025;-74
2021/06/07 04:56:14;;;;;;;6.03;4.22;;;21.00;66.50;;;;;;5074865;28;20040;-74
2021/06/07 04:58:40;;;;;;;8.93;4.30;;;21.00;66.40;;;;;;5074809;28;20021;-74
2021/06/07 05:01:12;;;;;;;6.55;4.40;;;21.00;66.60;;;;;;5074848;28;20025;-73
2021/06/07 05:03:39;;;;;;;7.07;4.50;;;21.00;66.70;;;;;;5074842;28;20028;-73
2021/06/07 05:06:05;;;;;;;7.13;4.30;;;21.10;66.80;;;;;;5073522;28;20024;-75
2021/06/07 05:08:31;;;;;;;7.38;4.25;;;21.10;66.70;;;;;;5074775;28;20029;-74
2021/06/07 05:10:58;;;;;;;7.15;4.38;;;21.30;66.60;;;;;;5074262;28;20083;-74
2021/06/07 05:13:25;;;;;;;7.60;3.95;;;21.40;66.50;;;;;;5073894;28;20021;-75
2021/06/07 05:15:52;;;;;;;7.40;4.22;;;21.60;66.30;;;;;;5074187;28;20090;-73
2021/06/07 05:18:18;;;;;;;6.07;3.95;;;21.80;65.90;;;;;;5074805;28;20382;-73
2021/06/07 05:20:45;;;;;;;5.25;4.30;;;21.90;65.30;;;;;;5074402;28;20028;-74
2021/06/07 05:23:11;;;;;;;6.28;4.47;;;22.10;64.80;;;;;;5074420;28;20035;-74
2021/06/07 05:25:38;;;;;;;6.45;4.22;;;22.10;65.10;;;;;;5073942;28;20028;-74
2021/06/07 05:28:06;;;;;;;5.07;4.20;;;22.10;64.10;;;;;;5074223;28;20066;-74
2021/06/07 05:30:32;;;;;;;6.35;3.85;;;22.00;63.90;;;;;;5074074;28;20544;-74
2021/06/07 05:32:58;;;;;;;12.00;4.00;;;22.00;63.90;;;;;;5074256;28;20473;-74
2021/06/07 05:35:27;;;;;;;5.47;4.05;;;22.00;63.90;;;;;;5074213;28;20033;-76
2021/06/07 05:37:53;;;;;;;5.47;4.25;;;22.10;64.00;;;;;;5074009;28;20469;-74
2021/06/07 05:40:20;;;;;;;9.00;4.30;;;22.10;64.00;;;;;;5073708;28;20035;-74
2021/06/07 05:42:47;;;;;;;7.63;5.03;;;22.10;63.80;;;;;;5073938;28;20056;-74
2021/06/07 05:45:14;;;;;;;10.23;4.32;;;22.10;64.00;;;;;;5072520;28;20032;-74
2021/06/07 05:47:41;;;;;;;6.25;4.07;;;22.20;63.80;;;;;;5072514;28;20077;-77
2021/06/07 05:50:09;;;;;;;7.00;4.50;;;22.10;63.80;;;;;;5073882;28;20541;-73
2021/06/07 05:52:35;;;;;;;7.50;4.70;;;22.20;63.70;;;;;;5073791;28;20029;-73
2021/06/07 05:55:02;;;;;;;5.90;4.30;;;22.30;63.50;;;;;;5073733;28;20031;-73
2021/06/07 05:57:27;;;;;;;9.77;4.47;;;22.40;63.30;;;;;;5073603;28;20458;-73
2021/06/07 05:59:53;;;;;;;7.28;3.92;;;22.40;63.30;;;;;;5073106;28;20024;-74
2021/06/07 06:02:19;;;;;;;4.88;3.92;;;22.50;63.20;;;;;;5073163;28;20024;-74
2021/06/07 06:04:44;;;;;;;5.57;4.22;;;22.50;63.10;;;;;;5073373;28;20470;-75
2021/06/07 06:07:10;;;;;;;9.48;4.95;;;22.60;62.90;;;;;;5073989;28;20056;-76
2021/06/07 06:09:36;;;;;;;8.55;4.50;;;22.70;62.80;;;;;;5072388;28;20036;-75
2021/06/07 06:12:02;;;;;;;9.55;5.85;;;22.90;62.70;;;;;;5073730;28;20028;-74
2021/06/07 06:14:28;;;;;;;5.40;4.00;;;23.00;62.40;;;;;;5073079;28;20107;-75
2021/06/07 06:16:55;;;;;;;7.10;4.85;;;23.20;62.00;;;;;;5073460;28;20067;-74
2021/06/07 06:19:23;;;;;;;5.80;4.53;;;23.20;61.80;;;;;;5073693;28;20033;-74
2021/06/07 06:21:50;;;;;;;6.32;4.32;;;23.30;61.30;;;;;;5073025;28;20082;-73
2021/06/07 06:24:15;;;;;;;6.35;3.80;;;23.30;61.10;;;;;;5073801;28;20115;-74
2021/06/07 06:26:41;;;;;;;7.85;3.67;;;23.30;60.90;;;;;;5078240;28;20039;-74
2021/06/07 06:29:08;;;;;;;11.85;4.05;;;23.30;60.80;;;;;;5086801;28;20028;-73
2021/06/07 06:31:34;;;;;;;5.72;4.10;;;23.30;60.90;;;;;;5086729;28;20032;-74
2021/06/07 06:34:02;;;;;;;8.05;4.63;;;23.30;61.10;;;;;;5077423;28;20029;-74
2021/06/07 06:36:27;;;;;;;6.78;3.60;;;23.50;61.10;;;;;;5073044;28;20111;-74
2021/06/07 06:38:54;;;;;;;6.18;3.38;;;23.70;60.70;;;;;;5072780;28;20052;-74
2021/06/07 06:41:19;;;;;;;5.32;4.00;;;23.80;60.10;;;;;;5088667;28;20458;-73
2021/06/07 06:43:45;;;;;;;6.25;3.88;;;24.00;59.70;;;;;;5073166;28;20131;-73
2021/06/07 06:46:11;;;;;;;3.40;3.10;;;24.10;58.80;;;;;;5073086;28;20058;-74
2021/06/07 06:48:37;;;;;;;3.72;3.20;;;24.30;58.20;;;;;;5072857;28;20029;-73
2021/06/07 06:51:04;;;;;;;5.05;3.10;;;24.50;57.80;;;;;;5073426;28;20328;-73
2021/06/07 06:53:30;;;;;;;3.67;3.08;;;24.70;57.30;;;;;;5070264;28;20040;-74
2021/06/07 06:55:56;;;;;;;3.17;2.97;;;25.00;56.80;;;;;;5057668;28;20029;-74
2021/06/07 06:58:22;;;;;;;4.57;2.97;;;25.20;56.40;;;;;;5060185;28;20390;-73
2021/06/07 07:00:48;;;;;;;3.58;2.85;;;25.40;55.90;;;;;;5061062;28;20067;-73
2021/06/07 07:03:17;;;;;;;6.60;4.20;;;25.50;55.60;;;;;;5061695;28;20044;-74
2021/06/07 07:05:44;;;;;;;4.75;3.30;;;25.70;55.20;;;;;;5062451;28;20021;-74
2021/06/07 07:08:10;;;;;;;4.82;3.22;;;25.80;54.90;;;;;;5061201;28;20025;-76
2021/06/07 07:10:40;;;;;;;5.88;3.08;;;26.00;55.00;;;;;;5062453;28;20424;-74
2021/06/07 07:13:06;;;;;;;3.40;3.10;;;26.20;54.70;;;;;;5066703;28;20013;-75
2021/06/07 07:15:32;;;;;;;4.90;3.17;;;26.30;54.30;;;;;;5065291;28;20037;-75
2021/06/07 07:17:58;;;;;;;3.13;2.83;;;26.50;53.80;;;;;;5064959;28;20379;-74
2021/06/07 07:20:24;;;;;;;4.53;2.72;;;26.50;53.70;;;;;;5066532;28;20033;-73
2021/06/07 07:22:50;;;;;;;3.42;3.13;;;26.50;53.30;;;;;;5064595;28;20035;-74
2021/06/07 07:25:15;;;;;;;5.18;3.13;;;26.50;53.30;;;;;;5065183;28;20029;-74
2021/06/07 07:27:41;;;;;;;4.10;3.58;;;26.50;53.20;;;;;;5066240;28;20032;-74
2021/06/07 07:30:12;;;;;;;3.63;3.33;;;26.40;53.20;;;;;;5065995;28;20016;-74
2021/06/07 07:32:39;;;;;;;3.85;3.30;;;26.40;53.30;;;;;;5065989;28;20029;-74
2021/06/07 07:35:06;;;;;;;3.90;3.20;;;26.50;53.40;;;;;;5064009;28;20024;-74
2021/06/07 07:37:33;;;;;;;5.53;3.17;;;26.60;53.20;;;;;;5065148;28;20430;-74
2021/06/07 07:39:59;;;;;;;4.40;3.33;;;26.60;53.00;;;;;;5065864;28;20020;-75
2021/06/07 07:42:25;;;;;;;3.50;3.20;;;26.60;53.10;;;;;;5062698;28;20119;-74
2021/06/07 07:44:51;;;;;;;4.82;3.53;;;26.60;53.00;;;;;;5065013;28;20091;-74
2021/06/07 07:47:18;;;;;;;5.95;3.10;;;26.70;52.90;;;;;;5065576;28;20033;-75
2021/06/07 07:49:45;;;;;;;6.03;2.90;;;26.80;52.80;;;;;;5066481;28;20020;-75
2021/06/07 07:52:11;;;;;;;3.70;3.25;;;27.00;52.50;;;;;;5064132;28;20036;-75
2021/06/07 07:54:37;;;;;;;5.28;3.58;;;27.10;52.30;;;;;;5064746;28;20016;-73
2021/06/07 07:57:05;;;;;;;3.53;3.08;;;27.20;52.00;;;;;;5065807;28;20025;-74
2021/06/07 07:59:32;;;;;;;3.45;3.13;;;27.40;51.70;;;;;;5064425;28;20021;-74
2021/06/07 08:01:58;;;;;;;3.83;3.47;;;27.60;51.70;;;;;;5064140;28;20023;-73
2021/06/07 08:04:24;;;;;;;5.80;3.60;;;27.70;51.10;;;;;;5065877;28;20029;-75
2021/06/07 08:06:50;;;;;;;5.43;3.38;;;27.80;50.90;;;;;;5063779;28;20391;-75
2021/06/07 08:09:16;;;;;;;3.45;3.15;;;27.90;50.80;;;;;;5064460;28;20459;-75
2021/06/07 08:11:42;;;;;;;5.47;3.30;;;28.00;50.60;;;;;;5064206;28;20032;-74
2021/06/07 08:14:08;;;;;;;3.95;3.40;;;28.10;50.50;;;;;;5063809;28;20032;-74
2021/06/07 08:16:33;;;;;;;4.00;3.38;;;28.40;50.30;;;;;;5064721;28;20017;-73
2021/06/07 08:18:59;;;;;;;4.75;3.58;;;28.70;50.10;;;;;;5065582;28;20029;-78
2021/06/07 08:21:25;;;;;;;5.53;3.45;;;29.00;49.90;;;;;;5065387;28;20052;-76
2021/06/07 08:23:51;;;;;;;5.28;3.40;;;29.40;49.50;;;;;;5063179;28;20033;-75
2021/06/07 08:26:17;;;;;;;5.22;3.40;;;29.60;49.10;;;;;;5063580;28;20390;-73
2021/06/07 08:28:42;;;;;;;6.47;3.72;;;29.90;49.10;;;;;;5057779;28;20108;-73
2021/06/07 08:31:08;;;;;;;8.52;3.20;;;30.10;48.60;;;;;;5060686;28;20044;-73
2021/06/07 08:33:35;;;;;;;3.58;2.83;;;30.30;47.60;;;;;;5075380;28;20036;-74
2021/06/07 08:36:04;;;;;;;4.95;2.90;;;30.10;46.70;;;;;;5075482;28;20020;-74
2021/06/07 08:38:29;;;;;;;4.57;3.00;;;30.00;46.90;;;;;;5075111;28;20044;-74
2021/06/07 08:40:55;;;;;;;3.97;2.60;;;29.90;47.10;;;;;;5075349;28;20117;-73
2021/06/07 08:43:23;;;;;;;5.13;2.80;;;30.00;46.90;;;;;;5075373;28;20032;-74
2021/06/07 08:45:49;;;;;;;3.35;2.95;;;30.20;46.60;;;;;;5075071;28;20116;-73
2021/06/07 08:48:15;;;;;;;3.20;3.00;;;30.50;46.30;;;;;;5075252;28;20440;-74
2021/06/07 08:50:42;;;;;;;3.17;2.90;;;30.60;46.30;;;;;;5075026;28;20094;-75
2021/06/07 08:53:08;;;;;;;5.05;3.50;;;30.90;46.10;;;;;;5075160;28;20112;-75
2021/06/07 08:55:34;;;;;;;4.43;3.13;;;31.00;46.10;;;;;;5074887;28;20096;-74
2021/06/07 08:58:04;;;;;;;5.10;3.30;;;30.80;45.90;;;;;;5075117;28;20091;-75
2021/06/07 09:00:32;;;;;;;3.40;3.10;;;30.60;46.20;;;;;;5074982;28;20024;-74
2021/06/07 09:03:06;;;;;;;7.32;3.33;;;30.80;46.30;;;;;;5074918;28;20550;-74
2021/06/07 09:05:33;;;;;;;7.15;3.45;;;31.00;45.80;;;;;;5075052;28;20366;-74
2021/06/07 09:08:05;;;;;;;4.65;3.10;;;31.20;45.50;;;;;;5074613;28;20052;-74
2021/06/07 09:10:34;;;;;;;6.03;2.92;;;31.30;45.40;;;;;;5074754;28;20035;-74
2021/06/07 09:13:04;;;;;;;3.15;2.92;;;31.50;45.20;;;;;;5074998;28;20507;-73
2021/06/07 09:15:40;;;;;;;5.28;3.25;;;31.80;44.80;;;;;;5073808;28;20020;-77
2021/06/07 09:18:14;;;;;;;2.75;2.55;;;32.00;44.50;;;;;;5072857;28;20104;-74
2021/06/07 09:20:40;;;;;;;;;;;32.20;44.10;;;;;;5073663;28;20029;-74
2021/06/07 09:23:14;;;;;;;4.05;2.85;;;32.40;44.40;;;;;;5074029;28;19950;-74
2021/06/07 09:25:44;;;;;;;5.88;2.78;;;32.60;43.80;;;;;;5073308;28;20032;-84
2021/06/07 09:28:19;;;;;;;2.83;2.60;;;32.70;43.60;;;;;;5072810;28;20107;-74
2021/06/07 09:30:52;;;;;;;4.07;2.53;;;33.00;43.10;;;;;;5072128;28;20026;-74
2021/06/07 09:33:30;;;;;;;4.72;2.67;;;33.20;42.70;;;;;;5072785;28;20440;-74
2021/06/07 09:36:25;;;;;;;2.70;2.33;;;33.70;42.40;;;;;;5076291;28;20119;-75
2021/06/07 09:39:16;;;;;;;4.03;2.50;;;34.10;42.00;;;;;;5054250;28;20113;-74
2021/06/07 09:41:45;;;;;;;2.85;2.13;;;34.60;41.50;;;;;;5048359;28;20486;-74
2021/06/07 09:44:28;;;;;;;2.40;2.20;;;35.10;41.10;;;;;;5054461;28;20039;-74
2021/06/07 09:47:08;;;;;;;3.38;2.20;;;35.60;40.50;;;;;;5054053;28;20035;-74
2021/06/07 09:49:47;;;;;;;2.92;2.60;;;36.20;40.20;;;;;;5052835;28;20029;-74
2021/06/07 09:52:28;;;;;;;2.40;2.20;;;36.80;39.80;;;;;;5054174;28;20032;-74
2021/06/07 09:55:10;;;;;;;4.78;2.50;;;37.50;38.80;;;;;;5065662;28;20038;-73
2021/06/07 09:57:52;;;;;;;2.17;2.00;;;37.60;38.10;;;;;;5094070;28;20030;-75
2021/06/07 10:00:48;;;;;;;4.45;2.53;;;37.20;37.60;;;;;;5094094;28;20068;-74
2021/06/07 10:03:27;;;;;;;2.40;2.20;;;36.90;37.70;;;;;;5093702;28;20040;-75
2021/06/07 10:06:17;;;;;;;3.17;1.95;;;36.60;37.80;;;;;;5094016;28;20035;-75
2021/06/07 10:08:58;;;;;;;2.75;2.10;;;36.70;37.60;;;;;;5092586;28;20032;-75
2021/06/07 10:11:25;;;;;;;2.35;2.10;;;36.50;37.60;;;;;;5094107;28;20107;-75
2021/06/07 10:14:04;;;;;;;2.65;2.45;;;36.50;37.70;;;;;;5093690;28;20110;-75
2021/06/07 10:16:31;;;;;;;4.45;1.88;;;36.90;37.70;;;;;;5094002;28;20024;-75
2021/06/07 10:18:59;;;;;;;2.50;1.60;;;37.60;37.50;;;;;;5093526;28;20107;-74
2021/06/07 10:21:25;;;;;;;2.28;1.80;;;38.60;37.00;;;;;;5093600;28;20036;-74
2021/06/07 10:23:51;;;;;;;2.42;2.22;;;39.40;35.90;;;;;;5093711;28;20028;-75
2021/06/07 10:26:16;;;;;;;2.00;1.63;;;40.20;35.60;;;;;;5093286;28;20454;-75
2021/06/07 10:28:44;;;;;;;2.53;1.48;;;40.90;34.70;;;;;;5092975;28;20046;-76
2021/06/07 10:31:17;;;;;;;3.22;1.90;;;41.30;33.90;;;;;;5093611;28;20032;-75
2021/06/07 10:33:55;;;;;;;2.38;1.92;;;40.80;33.30;;;;;;5093778;28;20030;-75
2021/06/07 10:36:21;;;;;;;2.20;2.00;;;39.70;33.60;;;;;;5093725;28;20077;-74
2021/06/07 10:38:50;;;;;;;2.13;1.95;;;38.50;34.50;;;;;;5093330;28;20028;-74
2021/06/07 10:41:23;;;;;;;3.70;2.10;;;37.80;35.20;;;;;;5093404;28;20059;-74
2021/06/07 10:43:54;;;;;;;3.25;2.20;;;37.70;35.80;;;;;;5090956;28;20101;-74
2021/06/07 10:46:41;;;;;;;2.55;2.10;;;37.50;35.80;;;;;;5097749;28;20053;-75
2021/06/07 10:49:35;;;;;;;2.63;1.90;;;37.20;36.00;;;;;;5100089;28;20021;-74
2021/06/07 10:52:05;;;;;;;3.92;2.30;;;37.80;36.40;;;;;;5100110;28;20032;-74
2021/06/07 10:54:35;;;;;;;3.38;2.20;;;38.10;36.00;;;;;;5100271;28;20028;-73
2021/06/07 10:57:35;;;;;;;2.88;2.50;;;37.40;35.80;;;;;;5098985;28;20020;-74
2021/06/07 11:00:04;;;;;;;3.97;2.85;;;35.90;36.50;;;;;;5099843;28;20028;-74
2021/06/07 11:02:41;;;;;;;6.90;2.30;;;34.40;37.80;;;;;;5100038;28;20480;-73
2021/06/07 11:05:24;;;;;;;7.20;2.67;;;33.10;39.00;;;;;;5100239;28;20464;-73
2021/06/07 11:08:21;;;;;;;3.10;2.50;;;31.90;39.70;;;;;;5099641;28;20382;-74
2021/06/07 11:11:09;;;;;;;4.57;2.47;;;30.70;41.10;;;;;;5116064;28;20438;-74
2021/06/07 11:13:47;;;;;;;5.20;2.85;;;29.80;42.90;;;;;;5098997;28;20036;-74
2021/06/07 11:16:28;;;;;;;3.22;2.92;;;28.80;45.30;;;;;;5099959;28;20055;-73
2021/06/07 11:19:04;;;;;;;4.70;3.20;;;27.90;46.80;;;;;;5099596;28;20470;-74
2021/06/07 11:21:32;;;;;;;7.72;2.33;;;27.20;48.20;;;;;;5099538;28;20062;-73
2021/06/07 11:23:58;;;;;;;5.72;2.92;;;26.60;49.30;;;;;;5099400;28;20024;-74
2021/06/07 11:26:42;;;;;;;3.47;2.72;;;26.10;50.60;;;;;;5100050;28;20058;-74
2021/06/07 11:29:12;;;;;;;4.35;2.95;;;25.70;51.70;;;;;;5099359;28;20028;-74
2021/06/07 11:31:43;;;;;;;4.03;2.45;;;25.50;52.20;;;;;;5098759;28;20032;-74
2021/06/07 11:34:14;;;;;;;5.63;3.45;;;25.40;52.20;;;;;;5099993;28;20063;-73
2021/06/07 11:36:41;;;;;;;3.97;2.80;;;25.30;52.70;;;;;;5098378;28;20028;-81
2021/06/07 11:39:14;;;;;;;3.30;2.30;;;25.30;52.70;;;;;;5099512;28;20466;-73
2021/06/07 11:41:48;;;;;;;2.00;1.70;;;25.20;52.20;;;;;;5099503;28;20088;-73
2021/06/07 11:44:15;;;;;;;;;;;25.20;51.80;;;;;;5099901;28;20422;-74
2021/06/07 11:46:41;;;;;;;3.13;1.80;;;25.20;51.30;;;;;;5099626;28;19904;-75
2021/06/07 11:49:18;;;;;;;2.15;1.95;;;25.20;51.30;;;;;;5099726;28;20531;-74
2021/06/07 11:51:46;;;;;;;3.33;2.20;;;25.20;51.70;;;;;;5098804;28;20043;-73
2021/06/07 11:54:27;;;;;;;3.55;2.53;;;25.30;52.00;;;;;;5099240;28;20023;-74
2021/06/07 11:57:07;;;;;;;3.72;3.22;;;25.40;52.20;;;;;;5078096;28;20033;-77
2021/06/07 11:59:38;;;;;;;4.22;2.88;;;25.60;53.20;;;;;;5060482;28;20041;-77
2021/06/07 12:02:17;;;;;;;6.22;3.38;;;25.70;52.60;;;;;;5055255;28;20078;-74
2021/06/07 12:04:44;;;;;;;3.53;2.80;;;25.90;52.80;;;;;;5055992;28;20486;-75
2021/06/07 12:07:11;;;;;;;3.20;2.90;;;26.50;52.40;;;;;;5055906;28;20517;-74
2021/06/07 12:09:39;;;;;;;4.00;2.58;;;28.20;51.40;;;;;;5055995;28;20021;-74
2021/06/07 12:12:06;;;;;;;2.80;2.30;;;30.20;49.50;;;;;;5055464;28;20040;-75
2021/06/07 12:14:36;;;;;;;3.72;2.70;;;32.20;47.20;;;;;;5055625;28;20517;-75
2021/06/07 12:17:08;;;;;;;2.80;2.17;;;33.90;44.40;;;;;;5055444;28;20028;-75
2021/06/07 12:19:40;;;;;;;2.55;2.30;;;35.30;42.10;;;;;;5055724;28;20075;-75
2021/06/07 12:22:23;;;;;;;2.33;2.20;;;36.50;40.70;;;;;;5054870;28;20112;-75
2021/06/07 12:30:41;;;;;;;2.78;2.42;;;39.30;37.20;;;;;;5055577;28;20071;-74
2021/06/07 12:33:07;;;;;;;6.07;2.88;;;39.90;36.00;;;;;;5054972;28;20025;-75
2021/06/07 12:35:36;;;;;;;3.63;3.10;;;40.40;35.60;;;;;;5055504;28;20391;-73
2021/06/07 12:38:09;;;;;;;3.85;3.10;;;40.80;34.90;;;;;;5055125;28;20036;-74
2021/06/07 12:40:40;;;;;;;4.22;3.20;;;41.10;34.70;;;;;;5055359;28;20044;-74
2021/06/07 12:43:05;;;;;;;3.58;2.92;;;41.50;34.20;;;;;;5055140;28;20037;-75
2021/06/07 12:45:39;;;;;;;4.47;3.10;;;41.70;33.90;;;;;;5055318;28;20040;-75
2021/06/07 12:48:12;;;;;;;4.38;2.75;;;41.20;33.70;;;;;;5055156;28;20021;-75
2021/06/07 12:50:39;;;;;;;3.83;3.25;;;39.70;34.30;;;;;;5055386;28;20037;-75
2021/06/07 12:53:05;;;;;;;6.38;3.60;;;38.00;36.00;;;;;;5055024;28;20471;-75
2021/06/07 12:55:34;;;;;;;5.05;3.78;;;36.30;36.90;;;;;;5054989;28;20025;-74
2021/06/07 12:58:07;;;;;;;5.85;3.45;;;35.00;38.20;;;;;;5054636;28;20430;-75
2021/06/07 13:00:38;;;;;;;6.57;3.80;;;33.60;39.70;;;;;;5054946;28;20021;-74
2021/06/07 13:03:18;;;;;;;5.80;3.80;;;32.60;41.00;;;;;;5053711;28;20040;-75